Time;durP1;ratioP1;P1;durP2;ratioP2;P2;SDS_P1;SDS_P2;PMS_P1;PMS_P2;Temp;Humidity;BMP_temperature;BMP_pressure;BME280_temperature;BME280_humidity;BME280_pressure;Samples;Min_cycle;Max_cycle;Signal;HPM_P1;HPM_P2
2022/06/25 00:00:55;;;;;;;0.80;0.77;;;;;;;;;;4933964;29;21019;-65
2022/06/25 00:03:21;;;;;;;2.10;0.90;;;;;;;;;;4932119;29;20423;-65
2022/06/25 00:05:47;;;;;;;0.70;0.70;;;;;;;;;;4933564;29;20452;-65
2022/06/25 00:08:13;;;;;;;1.43;0.63;;;;;;;;;;4932367;29;20498;-65
2022/06/25 00:10:39;;;;;;;2.70;0.70;;;;;;;;;;4930161;29;20438;-65
2022/06/25 00:13:05;;;;;;;1.90;0.90;;;;;;;;;;4933485;29;20623;-65
2022/06/25 00:15:32;;;;;;;3.37;0.70;;;;;;;;;;4933877;29;20463;-65
2022/06/25 00:17:58;;;;;;;2.83;0.80;;;;;;;;;;4932656;29;20443;-65
2022/06/25 00:20:24;;;;;;;0.60;0.60;;;;;;;;;;4931146;29;20939;-65
2022/06/25 00:22:50;;;;;;;0.80;0.80;;;;;;;;;;4931633;29;20439;-65
2022/06/25 00:25:16;;;;;;;3.10;0.77;;;;;;;;;;4932550;29;20967;-65
2022/06/25 00:27:42;;;;;;;0.97;0.70;;;;;;;;;;4933349;29;20479;-65
2022/06/25 00:30:08;;;;;;;0.60;0.60;;;;;;;;;;4930484;29;20435;-65
2022/06/25 00:32:35;;;;;;;0.97;0.60;;;;;;;;;;4931461;29;20451;-65
2022/06/25 00:35:01;;;;;;;0.60;0.60;;;;;;;;;;4928707;29;20475;-65
2022/06/25 00:37:28;;;;;;;1.33;0.63;;;;;;;;;;4932090;29;20525;-65
2022/06/25 00:39:54;;;;;;;2.80;0.70;;;;;;;;;;4933419;29;20431;-65
2022/06/25 00:42:21;;;;;;;0.90;0.90;;;;;;;;;;4932498;29;20440;-65
2022/06/25 00:44:48;;;;;;;0.80;0.80;;;;;;;;;;4930906;29;20483;-65
2022/06/25 00:47:14;;;;;;;10.03;1.23;;;;;;;;;;4930945;29;20488;-65
2022/06/25 00:49:41;;;;;;;8.33;1.07;;;;;;;;;;4931485;29;20436;-65
2022/06/25 00:52:14;;;;;;;0.80;0.80;;;;;;;;;;4933032;29;20944;-65
2022/06/25 00:54:43;;;;;;;3.20;1.00;;;;;;;;;;4932113;29;20436;-65
2022/06/25 00:57:09;;;;;;;2.77;0.80;;;;;;;;;;4929844;29;20439;-65
2022/06/25 00:59:43;;;;;;;1.50;0.70;;;;;;;;;;4933159;29;20507;-65
2022/06/25 01:02:09;;;;;;;1.90;0.70;;;;;;;;;;4929376;29;20519;-65
2022/06/25 01:04:36;;;;;;;0.80;0.80;;;;;;;;;;4932417;29;20888;-65
2022/06/25 01:07:02;;;;;;;1.03;1.00;;;;;;;;;;4930620;29;20498;-65
2022/06/25 01:09:28;;;;;;;0.80;0.80;;;;;;;;;;4930995;29;20431;-65
2022/06/25 01:11:55;;;;;;;1.17;0.90;;;;;;;;;;4930129;29;20432;-65
2022/06/25 01:14:21;;;;;;;18.67;1.07;;;;;;;;;;4927889;29;20451;-65
2022/06/25 01:16:47;;;;;;;4.67;0.83;;;;;;;;;;4930233;29;20448;-65
2022/06/25 01:19:13;;;;;;;4.33;1.00;;;;;;;;;;4931649;29;20440;-64
2022/06/25 01:21:40;;;;;;;3.87;1.00;;;;;;;;;;4932169;29;20510;-65
2022/06/25 01:24:06;;;;;;;1.33;0.73;;;;;;;;;;4930759;29;20439;-65
2022/06/25 01:26:41;;;;;;;0.73;0.70;;;;;;;;;;4932213;29;20480;-65
2022/06/25 01:29:08;;;;;;;1.10;1.00;;;;;;;;;;4931952;29;20822;-65
2022/06/25 01:31:34;;;;;;;0.73;0.73;;;;;;;;;;4931140;29;20470;-65
2022/06/25 01:34:00;;;;;;;6.43;1.03;;;;;;;;;;4931597;29;20470;-65
2022/06/25 01:36:27;;;;;;;0.70;0.70;;;;;;;;;;4931192;29;21027;-65
2022/06/25 01:38:53;;;;;;;1.27;1.13;;;;;;;;;;4931399;29;20440;-65
2022/06/25 01:41:19;;;;;;;4.40;0.93;;;;;;;;;;4931003;29;20454;-65
2022/06/25 01:43:45;;;;;;;2.30;0.70;;;;;;;;;;4932574;29;20436;-65
2022/06/25 01:46:12;;;;;;;3.43;1.30;;;;;;;;;;4930782;29;20473;-65
2022/06/25 01:48:38;;;;;;;9.33;0.97;;;;;;;;;;4930607;29;20452;-65
2022/06/25 01:51:04;;;;;;;3.27;0.90;;;;;;;;;;4932587;29;20520;-65
2022/06/25 01:53:30;;;;;;;3.27;0.83;;;;;;;;;;4930536;29;20952;-65
2022/06/25 01:55:56;;;;;;;1.83;1.33;;;;;;;;;;4930195;29;20482;-65
2022/06/25 01:58:22;;;;;;;3.80;1.10;;;;;;;;;;4930300;29;20484;-64
2022/06/25 02:00:48;;;;;;;10.50;1.50;;;;;;;;;;4931050;29;20441;-64
2022/06/25 02:03:14;;;;;;;2.37;1.60;;;;;;;;;;4930600;29;20464;-64
2022/06/25 02:05:59;;;;;;;2.20;1.43;;;;;;;;;;4929495;29;20423;-65
2022/06/25 02:08:27;;;;;;;0.97;0.97;;;;;;;;;;4930460;29;20522;-65
2022/06/25 02:10:53;;;;;;;3.50;1.53;;;;;;;;;;4932595;29;20442;-65
2022/06/25 02:13:19;;;;;;;1.27;0.90;;;;;;;;;;4931590;29;20474;-65
2022/06/25 02:15:45;;;;;;;1.90;1.60;;;;;;;;;;4930525;29;20522;-65
2022/06/25 02:18:11;;;;;;;1.63;1.53;;;;;;;;;;4931229;29;20526;-65
2022/06/25 02:20:38;;;;;;;1.57;1.40;;;;;;;;;;4931537;29;20527;-65
2022/06/25 02:23:04;;;;;;;1.13;0.97;;;;;;;;;;4931794;29;20519;-65
2022/06/25 02:25:30;;;;;;;1.70;0.93;;;;;;;;;;4932554;29;20855;-64
2022/06/25 02:27:56;;;;;;;3.60;1.00;;;;;;;;;;4929274;29;20491;-65
2022/06/25 02:30:22;;;;;;;1.40;0.80;;;;;;;;;;4929765;29;20451;-64
2022/06/25 02:32:48;;;;;;;3.73;1.53;;;;;;;;;;4929132;29;20829;-65
2022/06/25 02:35:14;;;;;;;3.27;1.07;;;;;;;;;;4930405;29;20440;-65
2022/06/25 02:37:40;;;;;;;1.50;1.10;;;;;;;;;;4929840;29;20455;-65
2022/06/25 02:40:07;;;;;;;2.13;0.97;;;;;;;;;;4927859;29;20466;-65
2022/06/25 02:42:34;;;;;;;0.60;0.60;;;;;;;;;;4930202;29;20952;-65
2022/06/25 02:45:00;;;;;;;3.93;0.77;;;;;;;;;;4929181;29;20482;-65
2022/06/25 02:47:26;;;;;;;1.27;0.80;;;;;;;;;;4929821;29;20500;-65
2022/06/25 02:49:52;;;;;;;0.80;0.80;;;;;;;;;;4931719;29;20435;-64
2022/06/25 02:52:18;;;;;;;0.50;0.50;;;;;;;;;;4930591;29;20959;-65
2022/06/25 02:54:44;;;;;;;0.70;0.70;;;;;;;;;;4928262;29;20436;-65
2022/06/25 02:59:55;;;;;;;0.77;0.60;;;;;;;;;;4930202;29;20579;-65
2022/06/25 03:02:21;;;;;;;1.63;1.53;;;;;;;;;;4929079;29;20511;-65
2022/06/25 03:04:46;;;;;;;1.27;0.70;;;;;;;;;;4929665;29;20439;-64
2022/06/25 03:07:12;;;;;;;0.73;0.70;;;;;;;;;;4928152;29;20479;-65
2022/06/25 03:09:39;;;;;;;4.10;0.90;;;;;;;;;;4930295;29;20487;-65
2022/06/25 03:12:05;;;;;;;3.23;1.10;;;;;;;;;;4945015;29;20444;-65
2022/06/25 03:14:31;;;;;;;2.00;0.70;;;;;;;;;;4929860;29;20452;-65
2022/06/25 03:16:57;;;;;;;1.63;0.63;;;;;;;;;;4929723;29;20526;-64
2022/06/25 03:19:23;;;;;;;7.60;0.70;;;;;;;;;;4929471;29;20805;-65
2022/06/25 03:21:49;;;;;;;0.70;0.70;;;;;;;;;;4927420;29;20438;-65
2022/06/25 03:24:15;;;;;;;0.63;0.60;;;;;;;;;;4930462;29;20936;-64
2022/06/25 03:26:41;;;;;;;1.13;0.80;;;;;;;;;;4926581;29;20975;-65
2022/06/25 03:29:07;;;;;;;1.67;0.80;;;;;;;;;;4930652;29;20455;-65
2022/06/25 03:31:33;;;;;;;1.77;0.87;;;;;;;;;;4929765;29;21007;-65
2022/06/25 03:33:59;;;;;;;0.73;0.73;;;;;;;;;;4931707;29;20439;-65
2022/06/25 03:36:25;;;;;;;1.23;0.83;;;;;;;;;;4930931;29;20455;-65
2022/06/25 03:38:50;;;;;;;3.90;0.70;;;;;;;;;;4933796;29;20442;-65
2022/06/25 03:44:01;;;;;;;1.00;1.00;;;;;;;;;;4934197;29;20503;-65
2022/06/25 03:46:27;;;;;;;8.53;0.80;;;;;;;;;;4931661;29;20492;-65
2022/06/25 03:48:53;;;;;;;7.67;0.80;;;;;;;;;;4932955;29;20447;-65
2022/06/25 03:51:19;;;;;;;8.43;1.13;;;;;;;;;;4933855;29;20435;-65
2022/06/25 03:53:45;;;;;;;0.70;0.70;;;;;;;;;;4933707;29;20439;-65
2022/06/25 03:56:12;;;;;;;1.00;1.00;;;;;;;;;;4933710;29;20443;-65
2022/06/25 03:58:39;;;;;;;1.83;0.70;;;;;;;;;;4934343;29;20937;-65
2022/06/25 04:01:05;;;;;;;8.30;1.00;;;;;;;;;;4933047;29;20475;-65
2022/06/25 04:03:31;;;;;;;0.90;0.90;;;;;;;;;;4933191;29;20863;-65
2022/06/25 04:05:57;;;;;;;1.80;1.20;;;;;;;;;;4934889;29;20432;-65
2022/06/25 04:08:23;;;;;;;0.70;0.70;;;;;;;;;;4930991;29;20494;-65
2022/06/25 04:10:49;;;;;;;0.90;0.90;;;;;;;;;;4934125;29;20516;-64
2022/06/25 04:13:15;;;;;;;12.57;1.37;;;;;;;;;;4935068;29;20502;-65
2022/06/25 04:15:42;;;;;;;2.50;1.03;;;;;;;;;;4932881;29;20649;-65
2022/06/25 04:18:08;;;;;;;4.53;1.40;;;;;;;;;;4933332;29;20844;-65
2022/06/25 04:20:34;;;;;;;1.30;1.30;;;;;;;;;;4932197;29;20792;-65
2022/06/25 04:23:00;;;;;;;1.20;1.20;;;;;;;;;;4933466;29;20432;-65
2022/06/25 04:25:26;;;;;;;1.50;1.50;;;;;;;;;;4931084;29;20465;-65
2022/06/25 04:30:37;;;;;;;1.43;1.33;;;;;;;;;;4930553;29;20451;-65
2022/06/25 04:33:03;;;;;;;1.37;1.20;;;;;;;;;;4932034;29;21075;-65
2022/06/25 04:35:29;;;;;;;2.33;1.60;;;;;;;;;;4930928;29;20440;-65
2022/06/25 04:37:55;;;;;;;8.33;1.40;;;;;;;;;;4931921;29;20447;-64
2022/06/25 04:40:21;;;;;;;1.73;1.63;;;;;;;;;;4932289;29;20420;-65
2022/06/25 04:42:47;;;;;;;2.63;1.43;;;;;;;;;;4930895;29;20530;-65
2022/06/25 04:45:13;;;;;;;1.57;1.47;;;;;;;;;;4932084;29;20436;-65
2022/06/25 04:47:39;;;;;;;7.83;1.63;;;;;;;;;;4933585;29;21023;-65
2022/06/25 04:50:07;;;;;;;1.40;1.40;;;;;;;;;;4932287;29;20431;-65
2022/06/25 04:52:33;;;;;;;1.83;1.53;;;;;;;;;;4932086;29;21008;-65
2022/06/25 04:54:59;;;;;;;1.40;1.40;;;;;;;;;;4930982;29;20527;-65
2022/06/25 04:57:25;;;;;;;2.93;1.50;;;;;;;;;;4929845;29;20452;-65
2022/06/25 04:59:51;;;;;;;5.80;1.40;;;;;;;;;;4930407;29;20475;-64
2022/06/25 05:02:17;;;;;;;1.60;1.30;;;;;;;;;;4931831;29;20939;-65
2022/06/25 05:04:43;;;;;;;1.40;1.23;;;;;;;;;;4931914;29;20814;-65
2022/06/25 05:07:09;;;;;;;2.90;1.13;;;;;;;;;;4930404;29;20479;-64
2022/06/25 05:09:35;;;;;;;1.40;1.00;;;;;;;;;;4931074;29;20814;-64
2022/06/25 05:12:01;;;;;;;2.63;1.33;;;;;;;;;;4928566;29;20439;-65
2022/06/25 05:14:27;;;;;;;1.70;1.00;;;;;;;;;;4929950;29;20451;-64
2022/06/25 05:16:54;;;;;;;2.23;1.37;;;;;;;;;;4926661;29;20530;-65
2022/06/25 05:19:20;;;;;;;1.57;0.87;;;;;;;;;;4930929;29;20440;-64
2022/06/25 05:21:46;;;;;;;2.60;1.20;;;;;;;;;;4929804;29;20837;-65
2022/06/25 05:24:12;;;;;;;1.70;1.20;;;;;;;;;;4931315;29;20431;-65
2022/06/25 05:26:38;;;;;;;1.40;1.10;;;;;;;;;;4930523;29;20475;-65
2022/06/25 05:29:04;;;;;;;1.03;1.00;;;;;;;;;;4929123;29;20475;-64
2022/06/25 05:31:30;;;;;;;0.83;0.77;;;;;;;;;;4930041;29;20428;-64
2022/06/25 05:33:56;;;;;;;5.10;1.27;;;;;;;;;;4932993;29;20447;-65
2022/06/25 05:36:22;;;;;;;4.63;0.73;;;;;;;;;;4931453;29;20446;-65
2022/06/25 05:38:48;;;;;;;1.00;1.00;;;;;;;;;;4929772;29;20447;-64
2022/06/25 05:41:14;;;;;;;0.60;0.60;;;;;;;;;;4930816;29;20514;-64
2022/06/25 05:43:40;;;;;;;0.50;0.50;;;;;;;;;;4930373;29;20441;-64
2022/06/25 05:46:07;;;;;;;4.40;3.20;;;;;;;;;;4931990;29;20443;-64
2022/06/25 05:48:33;;;;;;;0.90;0.90;;;;;;;;;;4931543;29;20615;-64
2022/06/25 05:50:59;;;;;;;0.70;0.70;;;;;;;;;;4931318;29;20471;-64
2022/06/25 05:53:26;;;;;;;0.70;0.70;;;;;;;;;;4945395;29;20527;-68
2022/06/25 05:55:52;;;;;;;1.17;0.87;;;;;;;;;;4930655;29;20440;-68
2022/06/25 05:58:18;;;;;;;2.53;0.80;;;;;;;;;;4931516;29;20506;-68
2022/06/25 06:00:45;;;;;;;4.70;0.73;;;;;;;;;;4931663;29;20495;-67
2022/06/25 06:03:10;;;;;;;4.53;0.60;;;;;;;;;;4930119;29;20444;-67
2022/06/25 06:05:38;;;;;;;1.13;0.90;;;;;;;;;;4932289;29;20440;-68
2022/06/25 06:08:05;;;;;;;5.77;1.00;;;;;;;;;;4929606;29;20494;-67
2022/06/25 06:10:31;;;;;;;1.03;0.93;;;;;;;;;;4931075;29;20951;-67
2022/06/25 06:12:57;;;;;;;1.10;1.10;;;;;;;;;;4929619;29;20444;-68
2022/06/25 06:15:23;;;;;;;0.70;0.70;;;;;;;;;;4931939;29;20432;-68
2022/06/25 06:17:49;;;;;;;1.07;0.90;;;;;;;;;;4930750;29;20527;-68
2022/06/25 06:20:15;;;;;;;2.30;0.63;;;;;;;;;;4931713;29;20444;-67
2022/06/25 06:22:41;;;;;;;0.97;0.80;;;;;;;;;;4928216;29;20448;-68
2022/06/25 06:25:07;;;;;;;2.00;0.90;;;;;;;;;;4932589;29;20440;-68
2022/06/25 06:27:33;;;;;;;1.33;0.60;;;;;;;;;;4930831;29;20491;-67
2022/06/25 06:29:59;;;;;;;1.03;1.03;;;;;;;;;;4931461;29;20459;-68
2022/06/25 06:32:25;;;;;;;1.33;0.90;;;;;;;;;;4927206;29;20502;-68
2022/06/25 06:34:51;;;;;;;0.70;0.70;;;;;;;;;;4929384;29;20192;-68
2022/06/25 06:37:17;;;;;;;0.90;0.90;;;;;;;;;;4929732;29;20451;-68
2022/06/25 06:39:43;;;;;;;0.80;0.80;;;;;;;;;;4932364;29;20432;-68
2022/06/25 06:42:09;;;;;;;0.87;0.87;;;;;;;;;;4929352;29;20449;-67
2022/06/25 06:44:35;;;;;;;0.80;0.80;;;;;;;;;;4927216;29;20780;-69
2022/06/25 06:47:01;;;;;;;0.97;0.97;;;;;;;;;;4929999;29;21106;-69
2022/06/25 06:49:27;;;;;;;0.70;0.70;;;;;;;;;;4931856;29;20956;-69
2022/06/25 06:51:53;;;;;;;2.07;0.70;;;;;;;;;;4931028;29;20439;-69
2022/06/25 06:54:19;;;;;;;1.97;0.80;;;;;;;;;;4931503;29;20452;-69
2022/06/25 06:56:45;;;;;;;0.70;0.70;;;;;;;;;;4929331;29;20872;-68
2022/06/25 06:59:11;;;;;;;0.97;0.70;;;;;;;;;;4930071;29;20566;-69
2022/06/25 07:01:37;;;;;;;2.53;0.67;;;;;;;;;;4930098;29;20442;-71
2022/06/25 07:04:03;;;;;;;3.70;0.90;;;;;;;;;;4928891;29;20499;-68
2022/06/25 07:06:29;;;;;;;0.70;0.70;;;;;;;;;;4929278;29;20439;-68
2022/06/25 07:08:55;;;;;;;0.60;0.60;;;;;;;;;;4933576;29;20947;-68
2022/06/25 07:11:30;;;;;;;0.87;0.87;;;;;;;;;;4934167;29;20441;-68
2022/06/25 07:14:00;;;;;;;0.60;0.60;;;;;;;;;;4933958;29;20545;-70
2022/06/25 07:16:27;;;;;;;2.00;0.80;;;;;;;;;;4935210;29;20948;-69
2022/06/25 07:18:53;;;;;;;4.90;1.00;;;;;;;;;;4935349;29;20805;-68
2022/06/25 07:21:19;;;;;;;2.33;1.30;;;;;;;;;;4935988;29;20426;-70
2022/06/25 07:23:45;;;;;;;0.70;0.53;;;;;;;;;;4932709;29;20519;-68
2022/06/25 07:26:11;;;;;;;0.70;0.70;;;;;;;;;;4935611;29;20428;-68
2022/06/25 07:28:37;;;;;;;5.83;0.80;;;;;;;;;;4932279;29;20475;-67
2022/06/25 07:31:04;;;;;;;2.47;0.67;;;;;;;;;;4934388;29;20443;-66
2022/06/25 07:33:30;;;;;;;0.80;0.80;;;;;;;;;;4933790;29;20534;-66
2022/06/25 07:35:56;;;;;;;0.97;0.97;;;;;;;;;;4935912;29;20515;-67
2022/06/25 07:38:22;;;;;;;0.60;0.60;;;;;;;;;;4930548;29;20443;-66
2022/06/25 07:40:48;;;;;;;0.87;0.80;;;;;;;;;;4932633;29;21465;-66
2022/06/25 07:43:15;;;;;;;2.10;0.60;;;;;;;;;;4933679;29;20439;-66
2022/06/25 07:45:41;;;;;;;0.80;0.80;;;;;;;;;;4932915;29;20443;-67
2022/06/25 07:48:07;;;;;;;5.70;3.83;;;;;;;;;;4931845;29;20543;-66
2022/06/25 07:53:17;;;;;;;5.23;0.70;;;;;;;;;;4930811;29;20431;-65
2022/06/25 07:55:43;;;;;;;1.10;1.10;;;;;;;;;;4933894;29;20428;-65
2022/06/25 07:58:09;;;;;;;0.93;0.90;;;;;;;;;;4934179;29;20437;-65
2022/06/25 08:00:35;;;;;;;0.70;0.70;;;;;;;;;;4934858;29;20440;-67
2022/06/25 08:03:01;;;;;;;2.70;0.80;;;;;;;;;;4932388;29;20865;-66
2022/06/25 08:05:28;;;;;;;0.90;0.90;;;;;;;;;;4934734;29;20435;-66
2022/06/25 08:07:54;;;;;;;1.53;1.43;;;;;;;;;;4934181;29;20479;-67
2022/06/25 08:10:20;;;;;;;1.60;0.87;;;;;;;;;;4933124;29;20494;-66
2022/06/25 08:12:46;;;;;;;0.50;0.50;;;;;;;;;;4933185;29;20439;-66
2022/06/25 08:15:12;;;;;;;1.00;1.00;;;;;;;;;;4932536;29;20955;-66
2022/06/25 08:17:38;;;;;;;0.93;0.93;;;;;;;;;;4932976;29;20450;-65
2022/06/25 08:20:04;;;;;;;2.33;0.60;;;;;;;;;;4930499;29;20432;-66
2022/06/25 08:22:30;;;;;;;0.87;0.87;;;;;;;;;;4933323;29;20861;-66
2022/06/25 08:24:56;;;;;;;1.03;0.73;;;;;;;;;;4933555;29;20440;-66
2022/06/25 08:27:23;;;;;;;0.87;0.87;;;;;;;;;;4931703;29;20495;-66
2022/06/25 08:29:49;;;;;;;0.73;0.73;;;;;;;;;;4932580;29;20443;-67
2022/06/25 08:32:15;;;;;;;0.80;0.80;;;;;;;;;;4934227;29;20440;-65
2022/06/25 08:34:41;;;;;;;2.60;0.70;;;;;;;;;;4934488;29;20423;-64
2022/06/25 08:37:07;;;;;;;1.00;1.00;;;;;;;;;;4933494;29;20548;-65
2022/06/25 08:39:33;;;;;;;0.80;0.80;;;;;;;;;;4933627;29;20436;-65
2022/06/25 08:42:01;;;;;;;1.03;0.87;;;;;;;;;;4933011;29;20522;-64
2022/06/25 08:44:29;;;;;;;2.40;2.20;;;;;;;;;;4912848;29;20421;-64
2022/06/25 08:46:56;;;;;;;1.00;1.00;;;;;;;;;;4917094;29;21092;-65
2022/06/25 08:49:22;;;;;;;7.40;0.93;;;;;;;;;;4918048;29;20468;-64
2022/06/25 08:51:48;;;;;;;1.10;1.10;;;;;;;;;;4922764;29;20432;-65
2022/06/25 08:54:14;;;;;;;5.37;0.87;;;;;;;;;;4937443;29;20427;-65
2022/06/25 08:56:41;;;;;;;2.20;1.10;;;;;;;;;;4934758;29;20440;-64
2022/06/25 08:59:08;;;;;;;0.77;0.77;;;;;;;;;;4936767;29;20859;-64
2022/06/25 09:01:34;;;;;;;1.13;1.13;;;;;;;;;;4936734;29;20420;-64
2022/06/25 09:04:00;;;;;;;0.70;0.70;;;;;;;;;;4936915;29;20420;-64
2022/06/25 09:06:26;;;;;;;1.67;0.97;;;;;;;;;;4919804;29;20821;-64
2022/06/25 09:09:09;;;;;;;8.23;0.70;;;;;;;;;;4928756;29;20510;-64
2022/06/25 09:11:47;;;;;;;1.30;1.20;;;;;;;;;;4937154;29;20519;-64
2022/06/25 09:14:20;;;;;;;2.83;0.93;;;;;;;;;;4935120;29;20443;-64
2022/06/25 09:17:06;;;;;;;0.90;0.90;;;;;;;;;;4932755;29;20480;-64
2022/06/25 09:19:36;;;;;;;0.70;0.70;;;;;;;;;;4919186;29;20441;-64
2022/06/25 09:22:06;;;;;;;1.40;1.40;;;;;;;;;;4917592;29;20897;-63
2022/06/25 09:24:51;;;;;;;0.90;0.90;;;;;;;;;;4934879;29;20444;-64
2022/06/25 09:27:20;;;;;;;2.70;0.90;;;;;;;;;;4933541;29;20479;-64
2022/06/25 09:29:48;;;;;;;0.77;0.77;;;;;;;;;;4933598;29;20503;-67
2022/06/25 09:32:15;;;;;;;0.97;0.97;;;;;;;;;;4933623;29;20435;-67
2022/06/25 09:34:42;;;;;;;1.00;1.00;;;;;;;;;;4918250;29;20449;-66
2022/06/25 09:37:18;;;;;;;0.80;0.80;;;;;;;;;;4933174;29;20431;-67
2022/06/25 09:39:45;;;;;;;0.93;0.93;;;;;;;;;;4917370;29;20424;-67
2022/06/25 09:42:31;;;;;;;2.33;1.37;;;;;;;;;;4917537;29;20487;-64
2022/06/25 09:45:11;;;;;;;1.97;1.83;;;;;;;;;;4917585;29;20484;-64
2022/06/25 09:47:39;;;;;;;1.50;0.83;;;;;;;;;;4918617;29;20822;-65
2022/06/25 09:50:13;;;;;;;0.87;0.87;;;;;;;;;;4922878;29;20496;-65
2022/06/25 09:52:49;;;;;;;1.53;1.53;;;;;;;;;;4921522;29;20440;-64
2022/06/25 09:55:15;;;;;;;3.13;0.93;;;;;;;;;;4917522;29;20803;-64
2022/06/25 09:57:41;;;;;;;1.20;1.07;;;;;;;;;;4925100;29;20447;-66
2022/06/25 10:00:07;;;;;;;3.10;1.13;;;;;;;;;;4935708;29;20558;-66
2022/06/25 10:02:33;;;;;;;0.67;0.67;;;;;;;;;;4936193;29;20466;-66
2022/06/25 10:05:03;;;;;;;0.93;0.63;;;;;;;;;;4936374;29;20451;-66
2022/06/25 10:10:19;;;;;;;1.20;1.20;;;;;;;;;;4917373;29;20432;-66
2022/06/25 10:12:46;;;;;;;0.90;0.90;;;;;;;;;;4917109;29;20764;-67
2022/06/25 10:15:13;;;;;;;0.90;0.90;;;;;;;;;;4917198;29;20428;-66
2022/06/25 10:17:40;;;;;;;0.90;0.90;;;;;;;;;;4916759;29;20421;-66
2022/06/25 10:20:06;;;;;;;0.67;0.67;;;;;;;;;;4917026;29;20468;-66
2022/06/25 10:22:32;;;;;;;0.90;0.90;;;;;;;;;;4924176;29;20527;-66
2022/06/25 10:25:00;;;;;;;2.60;0.87;;;;;;;;;;4931392;29;20438;-66
2022/06/25 10:27:26;;;;;;;1.90;1.90;;;;;;;;;;4935586;29;20471;-66
2022/06/25 10:29:55;;;;;;;1.10;1.10;;;;;;;;;;4935906;29;20423;-66
2022/06/25 10:32:22;;;;;;;3.00;1.83;;;;;;;;;;4934358;29;20523;-67
2022/06/25 10:34:54;;;;;;;0.87;0.87;;;;;;;;;;4935775;29;20903;-66
2022/06/25 10:37:20;;;;;;;0.80;0.80;;;;;;;;;;4933434;29;20786;-67
2022/06/25 10:39:53;;;;;;;0.83;0.80;;;;;;;;;;4916847;29;20417;-66
2022/06/25 10:45:07;;;;;;;0.70;0.70;;;;;;;;;;4916862;29;20447;-66
2022/06/25 10:47:40;;;;;;;0.70;0.70;;;;;;;;;;4916867;29;20607;-67
2022/06/25 10:50:22;;;;;;;0.90;0.90;;;;;;;;;;4916669;29;20417;-66
2022/06/25 10:53:03;;;;;;;0.90;0.90;;;;;;;;;;4923893;29;20455;-67
2022/06/25 10:55:29;;;;;;;1.03;1.00;;;;;;;;;;4933706;29;20526;-67
2022/06/25 10:58:10;;;;;;;3.30;0.83;;;;;;;;;;4934332;29;20431;-65
2022/06/25 11:00:47;;;;;;;0.90;0.90;;;;;;;;;;4930766;29;20527;-78
2022/06/25 11:03:13;;;;;;;1.73;1.50;;;;;;;;;;4935544;29;20415;-74
2022/06/25 11:05:42;;;;;;;1.13;1.10;;;;;;;;;;4931914;29;20425;-77
2022/06/25 11:08:09;;;;;;;0.80;0.80;;;;;;;;;;4934468;29;20566;-66
2022/06/25 11:10:35;;;;;;;1.60;1.00;;;;;;;;;;4935201;29;20920;-66
2022/06/25 11:13:02;;;;;;;0.70;0.70;;;;;;;;;;4935437;29;20566;-66
2022/06/25 11:15:38;;;;;;;1.03;0.97;;;;;;;;;;4933992;29;20470;-66
2022/06/25 11:18:08;;;;;;;7.30;1.50;;;;;;;;;;4934532;29;20831;-66
2022/06/25 11:20:34;;;;;;;1.90;1.30;;;;;;;;;;4935408;29;20416;-66
2022/06/25 11:23:00;;;;;;;0.50;0.50;;;;;;;;;;4934929;29;20763;-65
2022/06/25 11:30:55;;;;;;;1.87;0.90;;;;;;;;;;4916321;29;20412;-66
2022/06/25 11:33:21;;;;;;;1.10;1.10;;;;;;;;;;4916328;29;20416;-66
2022/06/25 11:35:49;;;;;;;0.90;0.90;;;;;;;;;;4916218;29;20416;-66
2022/06/25 11:38:19;;;;;;;0.90;0.90;;;;;;;;;;4936856;29;20429;-66
2022/06/25 11:40:45;;;;;;;9.80;1.07;;;;;;;;;;4916172;29;20432;-66
2022/06/25 11:43:13;;;;;;;0.80;0.80;;;;;;;;;;4916278;29;20950;-66
2022/06/25 11:45:52;;;;;;;1.03;0.80;;;;;;;;;;4916174;29;20417;-66
2022/06/25 11:48:18;;;;;;;0.70;0.60;;;;;;;;;;4916665;29;20487;-66
2022/06/25 11:50:44;;;;;;;1.10;1.00;;;;;;;;;;4916204;29;20421;-66
2022/06/25 11:53:10;;;;;;;0.80;0.80;;;;;;;;;;4918364;29;20444;-66
2022/06/25 11:55:39;;;;;;;2.43;0.50;;;;;;;;;;4920787;29;20515;-65
2022/06/25 11:58:05;;;;;;;0.70;0.70;;;;;;;;;;4938098;29;20431;-66
2022/06/25 12:00:31;;;;;;;2.00;1.90;;;;;;;;;;4937127;29;20470;-66
2022/06/25 12:03:01;;;;;;;1.30;0.60;;;;;;;;;;4919448;29;20432;-65
2022/06/25 12:05:28;;;;;;;0.80;0.80;;;;;;;;;;4929136;29;20999;-66
2022/06/25 12:07:56;;;;;;;0.60;0.60;;;;;;;;;;4928140;29;20536;-66
2022/06/25 12:10:22;;;;;;;1.13;1.00;;;;;;;;;;4934062;29;20444;-66
2022/06/25 12:12:49;;;;;;;0.60;0.60;;;;;;;;;;4935656;29;20444;-67
2022/06/25 12:15:15;;;;;;;0.80;0.80;;;;;;;;;;4938115;29;20430;-67
2022/06/25 12:17:41;;;;;;;0.70;0.70;;;;;;;;;;4934466;29;20514;-66
2022/06/25 12:20:08;;;;;;;1.50;1.50;;;;;;;;;;4931586;29;20438;-66
2022/06/25 12:22:37;;;;;;;1.67;1.57;;;;;;;;;;4936230;29;20443;-68
2022/06/25 12:25:03;;;;;;;1.03;0.80;;;;;;;;;;4938044;29;20423;-66
2022/06/25 12:27:29;;;;;;;1.30;1.10;;;;;;;;;;4937477;29;20974;-66
2022/06/25 12:29:57;;;;;;;5.43;0.90;;;;;;;;;;4938018;29;20436;-66
2022/06/25 12:32:36;;;;;;;1.00;0.83;;;;;;;;;;4935987;29;20909;-66
2022/06/25 12:35:02;;;;;;;0.60;0.60;;;;;;;;;;4924857;29;20440;-66
2022/06/25 12:37:32;;;;;;;0.90;0.90;;;;;;;;;;4917969;29;20431;-66
2022/06/25 12:39:59;;;;;;;2.00;0.90;;;;;;;;;;4919087;29;20634;-66
2022/06/25 12:42:26;;;;;;;1.80;0.90;;;;;;;;;;4919730;29;20508;-65
2022/06/25 12:44:52;;;;;;;1.40;0.80;;;;;;;;;;4918619;29;20428;-66
2022/06/25 12:47:18;;;;;;;3.80;2.10;;;;;;;;;;4922372;29;21014;-66
2022/06/25 12:49:46;;;;;;;1.00;1.00;;;;;;;;;;4923073;29;20508;-66
2022/06/25 12:52:13;;;;;;;1.13;1.13;;;;;;;;;;4933894;29;20434;-66
2022/06/25 12:54:40;;;;;;;0.70;0.70;;;;;;;;;;4935875;29;20507;-66
2022/06/25 12:57:06;;;;;;;0.63;0.63;;;;;;;;;;4937227;29;20448;-66
2022/06/25 12:59:32;;;;;;;3.40;0.60;;;;;;;;;;4935566;29;20503;-66
2022/06/25 13:01:58;;;;;;;0.87;0.87;;;;;;;;;;4937319;29;20857;-66
2022/06/25 13:04:24;;;;;;;4.27;3.97;;;;;;;;;;4935644;29;20433;-66
2022/06/25 13:06:50;;;;;;;0.70;0.70;;;;;;;;;;4935416;29;20188;-66
2022/06/25 13:09:16;;;;;;;2.23;2.13;;;;;;;;;;4931683;29;20199;-66
2022/06/25 13:11:42;;;;;;;1.93;1.93;;;;;;;;;;4939305;29;20431;-66
2022/06/25 13:14:08;;;;;;;1.57;1.07;;;;;;;;;;4937132;29;20420;-66
2022/06/25 13:16:33;;;;;;;1.43;0.90;;;;;;;;;;4936085;29;20423;-66
2022/06/25 13:18:59;;;;;;;0.70;0.70;;;;;;;;;;4935731;29;20448;-66
2022/06/25 13:21:25;;;;;;;0.80;0.80;;;;;;;;;;4926889;29;20443;-66
2022/06/25 13:23:51;;;;;;;3.57;0.97;;;;;;;;;;4933721;29;20441;-66
2022/06/25 13:26:17;;;;;;;0.93;0.93;;;;;;;;;;4918172;29;20917;-66
2022/06/25 13:28:43;;;;;;;0.70;0.70;;;;;;;;;;4932296;29;20498;-66
2022/06/25 13:31:09;;;;;;;1.50;1.00;;;;;;;;;;4940252;29;20428;-66
2022/06/25 13:33:35;;;;;;;2.30;0.50;;;;;;;;;;4926019;29;20276;-61
2022/06/25 13:36:01;;;;;;;0.77;0.77;;;;;;;;;;4932343;29;20432;-60
2022/06/25 13:38:27;;;;;;;0.80;0.80;;;;;;;;;;4935353;29;20432;-60
2022/06/25 13:40:53;;;;;;;0.90;0.90;;;;;;;;;;4921780;29;20432;-66
2022/06/25 13:43:19;;;;;;;3.20;1.00;;;;;;;;;;4932336;29;20856;-66
2022/06/25 13:45:45;;;;;;;0.67;0.67;;;;;;;;;;4918580;29;20432;-66
2022/06/25 13:48:11;;;;;;;0.67;0.67;;;;;;;;;;4933770;29;21039;-66
2022/06/25 13:50:37;;;;;;;0.67;0.67;;;;;;;;;;4924143;29;20466;-70
2022/06/25 13:53:03;;;;;;;0.77;0.67;;;;;;;;;;4928667;29;20439;-71
2022/06/25 13:55:29;;;;;;;0.80;0.80;;;;;;;;;;4934858;29;20443;-71
2022/06/25 13:57:55;;;;;;;0.60;0.60;;;;;;;;;;4935229;29;20804;-71
2022/06/25 14:00:21;;;;;;;0.87;0.87;;;;;;;;;;4933583;29;20475;-71
2022/06/25 14:02:47;;;;;;;0.50;0.50;;;;;;;;;;4931734;29;20227;-71
2022/06/25 14:05:13;;;;;;;2.20;0.90;;;;;;;;;;4918276;29;20433;-71
2022/06/25 14:07:39;;;;;;;2.10;0.77;;;;;;;;;;4917056;29;20578;-70
2022/06/25 14:10:05;;;;;;;5.73;1.40;;;;;;;;;;4917853;29;20523;-71
2022/06/25 14:12:31;;;;;;;0.80;0.70;;;;;;;;;;4929555;29;20843;-71
2022/06/25 14:14:57;;;;;;;0.70;0.70;;;;;;;;;;4924095;29;20433;-71
2022/06/25 14:17:23;;;;;;;0.73;0.73;;;;;;;;;;4925550;29;20797;-66
2022/06/25 14:19:50;;;;;;;0.80;0.80;;;;;;;;;;4931370;29;20431;-66
2022/06/25 14:22:16;;;;;;;1.57;1.00;;;;;;;;;;4935592;29;20424;-66
2022/06/25 14:27:26;;;;;;;0.70;0.70;;;;;;;;;;4934028;29;20507;-66
2022/06/25 14:29:53;;;;;;;1.23;1.20;;;;;;;;;;4947471;29;20437;-66
2022/06/25 14:32:18;;;;;;;2.30;1.10;;;;;;;;;;4947285;29;20440;-66
2022/06/25 14:34:44;;;;;;;0.80;0.80;;;;;;;;;;4916792;29;20436;-65
2022/06/25 14:42:40;;;;;;;3.90;0.80;;;;;;;;;;4932192;29;20535;-66
2022/06/25 14:45:06;;;;;;;0.70;0.70;;;;;;;;;;4934576;29;20472;-66
2022/06/25 14:47:32;;;;;;;2.70;0.70;;;;;;;;;;4935153;29;20479;-66
2022/06/25 14:49:58;;;;;;;0.70;0.70;;;;;;;;;;4922237;29;20437;-66
2022/06/25 14:52:24;;;;;;;0.63;0.63;;;;;;;;;;4946862;29;20529;-65
2022/06/25 14:54:50;;;;;;;0.80;0.80;;;;;;;;;;4916640;29;20425;-66
2022/06/25 14:57:16;;;;;;;1.30;1.30;;;;;;;;;;4916374;29;20778;-65
2022/06/25 14:59:42;;;;;;;0.73;0.73;;;;;;;;;;4919803;29;20891;-66
2022/06/25 15:02:08;;;;;;;1.20;0.90;;;;;;;;;;4918967;29;20428;-66
2022/06/25 15:04:34;;;;;;;1.03;1.03;;;;;;;;;;4916457;29;20437;-66
2022/06/25 15:06:59;;;;;;;0.70;0.70;;;;;;;;;;4915807;29;20417;-65
2022/06/25 15:09:25;;;;;;;0.73;0.73;;;;;;;;;;4916517;29;20439;-65
2022/06/25 15:11:51;;;;;;;0.97;0.97;;;;;;;;;;4916557;29;20200;-65